sensor_id;sensor_type;location;lat;lon;timestamp;temperature;humidity
24144;DHT22;12307;50.828;6.080;2023-08-07T00:00:41;20.50;79.60
24144;DHT22;12307;50.828;6.080;2023-08-07T00:03:06;20.50;79.50
24144;DHT22;12307;50.828;6.080;2023-08-07T00:05:32;20.50;79.50
24144;DHT22;12307;50.828;6.080;2023-08-07T00:07:58;20.50;79.50
24144;DHT22;12307;50.828;6.080;2023-08-07T00:10:23;20.50;79.50
24144;DHT22;12307;50.828;6.080;2023-08-07T00:12:50;20.50;79.50
24144;DHT22;12307;50.828;6.080;2023-08-07T00:15:16;20.50;79.50
24144;DHT22;12307;50.828;6.080;2023-08-07T00:17:44;20.50;79.50
24144;DHT22;12307;50.828;6.080;2023-08-07T00:20:10;20.50;79.50
24144;DHT22;12307;50.828;6.080;2023-08-07T00:22:37;20.50;79.50
24144;DHT22;12307;50.828;6.080;2023-08-07T00:25:03;20.50;79.50
24144;DHT22;12307;50.828;6.080;2023-08-07T00:27:28;20.50;79.50
24144;DHT22;12307;50.828;6.080;2023-08-07T00:29:54;20.50;79.50
24144;DHT22;12307;50.828;6.080;2023-08-07T00:32:20;20.50;79.50
24144;DHT22;12307;50.828;6.080;2023-08-07T00:34:47;20.50;79.50
24144;DHT22;12307;50.828;6.080;2023-08-07T00:37:13;20.50;79.50
24144;DHT22;12307;50.828;6.080;2023-08-07T00:39:38;20.50;79.50
24144;DHT22;12307;50.828;6.080;2023-08-07T00:42:05;20.50;79.50
24144;DHT22;12307;50.828;6.080;2023-08-07T00:44:31;20.50;79.50
24144;DHT22;12307;50.828;6.080;2023-08-07T00:46:57;20.50;79.50
24144;DHT22;12307;50.828;6.080;2023-08-07T00:49:23;20.50;79.50
24144;DHT22;12307;50.828;6.080;2023-08-07T00:51:50;20.50;79.50
24144;DHT22;12307;50.828;6.080;2023-08-07T00:54:18;20.50;79.40
24144;DHT22;12307;50.828;6.080;2023-08-07T00:56:45;20.50;79.50
24144;DHT22;12307;50.828;6.080;2023-08-07T00:59:11;20.50;79.40
24144;DHT22;12307;50.828;6.080;2023-08-07T01:01:38;20.50;79.50
24144;DHT22;12307;50.828;6.080;2023-08-07T01:04:04;20.50;79.40
24144;DHT22;12307;50.828;6.080;2023-08-07T01:06:29;20.50;79.40
24144;DHT22;12307;50.828;6.080;2023-08-07T01:08:57;20.50;79.40
24144;DHT22;12307;50.828;6.080;2023-08-07T01:11:31;20.50;79.40
24144;DHT22;12307;50.828;6.080;2023-08-07T01:14:06;20.50;79.40
24144;DHT22;12307;50.828;6.080;2023-08-07T01:16:37;20.50;79.40
24144;DHT22;12307;50.828;6.080;2023-08-07T01:19:11;20.50;79.40
24144;DHT22;12307;50.828;6.080;2023-08-07T01:21:46;20.50;79.40
24144;DHT22;12307;50.828;6.080;2023-08-07T01:24:13;20.50;79.40
24144;DHT22;12307;50.828;6.080;2023-08-07T01:26:40;20.50;79.40
24144;DHT22;12307;50.828;6.080;2023-08-07T01:29:13;20.40;79.40
24144;DHT22;12307;50.828;6.080;2023-08-07T01:31:40;20.40;79.30
24144;DHT22;12307;50.828;6.080;2023-08-07T01:34:08;20.50;79.40
24144;DHT22;12307;50.828;6.080;2023-08-07T01:36:37;20.50;79.40
24144;DHT22;12307;50.828;6.080;2023-08-07T01:39:06;20.50;79.40
24144;DHT22;12307;50.828;6.080;2023-08-07T01:41:35;20.50;79.40
24144;DHT22;12307;50.828;6.080;2023-08-07T01:44:01;20.40;79.30
24144;DHT22;12307;50.828;6.080;2023-08-07T01:46:27;20.40;79.40
24144;DHT22;12307;50.828;6.080;2023-08-07T01:48:53;20.40;79.30
24144;DHT22;12307;50.828;6.080;2023-08-07T01:51:18;20.50;79.40
24144;DHT22;12307;50.828;6.080;2023-08-07T01:53:44;20.50;79.40
24144;DHT22;12307;50.828;6.080;2023-08-07T01:56:12;20.40;79.30
24144;DHT22;12307;50.828;6.080;2023-08-07T01:58:37;20.50;79.40
24144;DHT22;12307;50.828;6.080;2023-08-07T02:01:03;20.50;79.40
24144;DHT22;12307;50.828;6.080;2023-08-07T02:03:29;20.40;79.40
24144;DHT22;12307;50.828;6.080;2023-08-07T02:05:54;20.40;79.30
24144;DHT22;12307;50.828;6.080;2023-08-07T02:08:20;20.40;79.30
24144;DHT22;12307;50.828;6.080;2023-08-07T02:10:46;20.40;79.30
24144;DHT22;12307;50.828;6.080;2023-08-07T02:13:13;20.40;79.30
24144;DHT22;12307;50.828;6.080;2023-08-07T02:15:38;20.40;79.30
24144;DHT22;12307;50.828;6.080;2023-08-07T02:18:04;20.40;79.30
24144;DHT22;12307;50.828;6.080;2023-08-07T02:20:30;20.40;79.30
24144;DHT22;12307;50.828;6.080;2023-08-07T02:22:56;20.40;79.30
24144;DHT22;12307;50.828;6.080;2023-08-07T02:25:21;20.40;79.30
24144;DHT22;12307;50.828;6.080;2023-08-07T02:27:47;20.40;79.30
24144;DHT22;12307;50.828;6.080;2023-08-07T02:30:14;20.40;79.30
24144;DHT22;12307;50.828;6.080;2023-08-07T02:32:40;20.40;79.30
24144;DHT22;12307;50.828;6.080;2023-08-07T02:35:08;20.40;79.30
24144;DHT22;12307;50.828;6.080;2023-08-07T02:37:34;20.40;79.30
24144;DHT22;12307;50.828;6.080;2023-08-07T02:39:59;20.40;79.30
24144;DHT22;12307;50.828;6.080;2023-08-07T02:42:25;20.40;79.30
24144;DHT22;12307;50.828;6.080;2023-08-07T02:44:51;20.40;79.30
24144;DHT22;12307;50.828;6.080;2023-08-07T02:47:18;20.40;79.30
24144;DHT22;12307;50.828;6.080;2023-08-07T02:49:43;20.40;79.30
24144;DHT22;12307;50.828;6.080;2023-08-07T02:52:09;20.40;79.30
24144;DHT22;12307;50.828;6.080;2023-08-07T02:54:35;20.40;79.30
24144;DHT22;12307;50.828;6.080;2023-08-07T02:57:00;20.40;80.00
24144;DHT22;12307;50.828;6.080;2023-08-07T02:59:26;20.40;79.30
24144;DHT22;12307;50.828;6.080;2023-08-07T03:01:52;20.40;79.30
24144;DHT22;12307;50.828;6.080;2023-08-07T03:04:19;20.40;79.30
24144;DHT22;12307;50.828;6.080;2023-08-07T03:06:45;20.40;79.30
24144;DHT22;12307;50.828;6.080;2023-08-07T03:09:10;20.40;79.20
24144;DHT22;12307;50.828;6.080;2023-08-07T03:11:36;20.40;79.20
24144;DHT22;12307;50.828;6.080;2023-08-07T03:14:02;20.40;79.30
24144;DHT22;12307;50.828;6.080;2023-08-07T03:16:28;20.40;79.30
24144;DHT22;12307;50.828;6.080;2023-08-07T03:18:54;20.40;79.30
24144;DHT22;12307;50.828;6.080;2023-08-07T03:21:21;20.40;79.30
24144;DHT22;12307;50.828;6.080;2023-08-07T03:23:47;20.40;79.20
24144;DHT22;12307;50.828;6.080;2023-08-07T03:26:13;20.40;79.30
24144;DHT22;12307;50.828;6.080;2023-08-07T03:28:39;20.40;79.30
24144;DHT22;12307;50.828;6.080;2023-08-07T03:31:05;20.40;79.20
24144;DHT22;12307;50.828;6.080;2023-08-07T03:33:31;20.40;79.20
24144;DHT22;12307;50.828;6.080;2023-08-07T03:35:56;20.40;79.30
24144;DHT22;12307;50.828;6.080;2023-08-07T03:38:24;20.40;79.30
24144;DHT22;12307;50.828;6.080;2023-08-07T03:40:49;20.30;79.20
24144;DHT22;12307;50.828;6.080;2023-08-07T03:43:15;20.40;79.30
24144;DHT22;12307;50.828;6.080;2023-08-07T03:45:42;20.40;79.30
24144;DHT22;12307;50.828;6.080;2023-08-07T03:48:08;20.40;79.30
24144;DHT22;12307;50.828;6.080;2023-08-07T03:50:33;20.40;79.30
24144;DHT22;12307;50.828;6.080;2023-08-07T03:53:02;20.30;79.20
24144;DHT22;12307;50.828;6.080;2023-08-07T03:55:29;20.30;79.20
24144;DHT22;12307;50.828;6.080;2023-08-07T03:57:55;20.30;79.30
24144;DHT22;12307;50.828;6.080;2023-08-07T04:00:21;20.30;79.20
24144;DHT22;12307;50.828;6.080;2023-08-07T04:02:46;20.30;79.20
24144;DHT22;12307;50.828;6.080;2023-08-07T04:05:12;20.30;79.20
24144;DHT22;12307;50.828;6.080;2023-08-07T04:07:38;20.30;79.20
24144;DHT22;12307;50.828;6.080;2023-08-07T04:10:04;20.30;79.20
24144;DHT22;12307;50.828;6.080;2023-08-07T04:12:32;20.30;79.30
24144;DHT22;12307;50.828;6.080;2023-08-07T04:14:57;20.30;79.30
24144;DHT22;12307;50.828;6.080;2023-08-07T04:17:23;20.30;79.20
24144;DHT22;12307;50.828;6.080;2023-08-07T04:19:50;20.30;79.30
24144;DHT22;12307;50.828;6.080;2023-08-07T04:22:15;20.30;79.20
24144;DHT22;12307;50.828;6.080;2023-08-07T04:24:41;20.30;79.30
24144;DHT22;12307;50.828;6.080;2023-08-07T04:27:07;20.30;79.30
24144;DHT22;12307;50.828;6.080;2023-08-07T04:29:35;20.30;79.30
24144;DHT22;12307;50.828;6.080;2023-08-07T04:32:00;20.30;79.20
24144;DHT22;12307;50.828;6.080;2023-08-07T04:34:26;20.30;79.30
24144;DHT22;12307;50.828;6.080;2023-08-07T04:36:52;20.30;79.30
24144;DHT22;12307;50.828;6.080;2023-08-07T04:39:20;20.30;79.30
24144;DHT22;12307;50.828;6.080;2023-08-07T04:41:45;20.30;79.30
24144;DHT22;12307;50.828;6.080;2023-08-07T04:44:11;20.30;79.20
24144;DHT22;12307;50.828;6.080;2023-08-07T04:46:38;20.30;79.30
24144;DHT22;12307;50.828;6.080;2023-08-07T04:49:04;20.30;79.20
24144;DHT22;12307;50.828;6.080;2023-08-07T04:51:31;20.30;79.30
24144;DHT22;12307;50.828;6.080;2023-08-07T04:53:57;20.30;79.20
24144;DHT22;12307;50.828;6.080;2023-08-07T04:56:22;20.30;79.20
24144;DHT22;12307;50.828;6.080;2023-08-07T04:58:48;20.30;79.20
24144;DHT22;12307;50.828;6.080;2023-08-07T05:01:14;20.30;79.20
24144;DHT22;12307;50.828;6.080;2023-08-07T05:03:41;20.30;79.20
24144;DHT22;12307;50.828;6.080;2023-08-07T05:06:07;20.30;79.20
24144;DHT22;12307;50.828;6.080;2023-08-07T05:08:32;20.30;79.20
24144;DHT22;12307;50.828;6.080;2023-08-07T05:10:58;20.30;79.20
24144;DHT22;12307;50.828;6.080;2023-08-07T05:13:24;20.30;79.20
24144;DHT22;12307;50.828;6.080;2023-08-07T05:15:50;20.30;79.20
24144;DHT22;12307;50.828;6.080;2023-08-07T05:18:16;20.30;79.20
24144;DHT22;12307;50.828;6.080;2023-08-07T05:20:43;20.30;79.20
24144;DHT22;12307;50.828;6.080;2023-08-07T05:23:09;20.30;79.10
24144;DHT22;12307;50.828;6.080;2023-08-07T05:25:35;20.30;79.20
24144;DHT22;12307;50.828;6.080;2023-08-07T05:28:01;20.30;79.10
24144;DHT22;12307;50.828;6.080;2023-08-07T05:30:27;20.30;79.10
24144;DHT22;12307;50.828;6.080;2023-08-07T05:32:52;20.30;79.10
24144;DHT22;12307;50.828;6.080;2023-08-07T05:35:18;20.30;79.00
24144;DHT22;12307;50.828;6.080;2023-08-07T05:37:45;20.30;79.00
24144;DHT22;12307;50.828;6.080;2023-08-07T05:40:11;20.30;79.00
24144;DHT22;12307;50.828;6.080;2023-08-07T05:42:37;20.30;79.00
24144;DHT22;12307;50.828;6.080;2023-08-07T05:45:03;20.30;79.00
24144;DHT22;12307;50.828;6.080;2023-08-07T05:47:29;20.30;79.00
24144;DHT22;12307;50.828;6.080;2023-08-07T05:49:55;20.30;78.90
24144;DHT22;12307;50.828;6.080;2023-08-07T05:52:21;20.30;78.90
24144;DHT22;12307;50.828;6.080;2023-08-07T05:54:48;20.30;78.90
24144;DHT22;12307;50.828;6.080;2023-08-07T05:57:13;20.30;78.90
24144;DHT22;12307;50.828;6.080;2023-08-07T05:59:39;20.40;79.00
24144;DHT22;12307;50.828;6.080;2023-08-07T06:02:06;20.40;78.90
24144;DHT22;12307;50.828;6.080;2023-08-07T06:04:32;20.30;78.90
24144;DHT22;12307;50.828;6.080;2023-08-07T06:06:57;20.30;78.90
24144;DHT22;12307;50.828;6.080;2023-08-07T06:09:23;20.30;78.80
24144;DHT22;12307;50.828;6.080;2023-08-07T06:11:50;20.30;78.80
24144;DHT22;12307;50.828;6.080;2023-08-07T06:14:16;20.30;78.80
24144;DHT22;12307;50.828;6.080;2023-08-07T06:16:42;20.30;78.80
24144;DHT22;12307;50.828;6.080;2023-08-07T06:19:07;20.30;78.80
24144;DHT22;12307;50.828;6.080;2023-08-07T06:21:34;20.40;78.90
24144;DHT22;12307;50.828;6.080;2023-08-07T06:23:59;20.40;78.80
24144;DHT22;12307;50.828;6.080;2023-08-07T06:26:25;20.40;78.80
24144;DHT22;12307;50.828;6.080;2023-08-07T06:28:52;20.30;78.70
24144;DHT22;12307;50.828;6.080;2023-08-07T06:31:18;20.40;78.80
24144;DHT22;12307;50.828;6.080;2023-08-07T06:33:44;20.40;78.70
24144;DHT22;12307;50.828;6.080;2023-08-07T06:36:09;20.40;78.70
24144;DHT22;12307;50.828;6.080;2023-08-07T06:38:35;20.40;78.70
24144;DHT22;12307;50.828;6.080;2023-08-07T06:41:01;20.40;78.70
24144;DHT22;12307;50.828;6.080;2023-08-07T06:43:27;20.40;78.70
24144;DHT22;12307;50.828;6.080;2023-08-07T06:45:56;20.40;78.60
24144;DHT22;12307;50.828;6.080;2023-08-07T06:48:22;20.40;78.60
24144;DHT22;12307;50.828;6.080;2023-08-07T06:50:48;20.40;78.60
24144;DHT22;12307;50.828;6.080;2023-08-07T06:53:15;20.40;78.60
24144;DHT22;12307;50.828;6.080;2023-08-07T06:55:41;20.40;78.60
24144;DHT22;12307;50.828;6.080;2023-08-07T06:58:06;20.40;78.60
24144;DHT22;12307;50.828;6.080;2023-08-07T07:00:32;20.40;78.50
24144;DHT22;12307;50.828;6.080;2023-08-07T07:03:02;20.40;78.40
24144;DHT22;12307;50.828;6.080;2023-08-07T07:05:27;20.40;78.40
24144;DHT22;12307;50.828;6.080;2023-08-07T07:07:53;20.40;78.40
24144;DHT22;12307;50.828;6.080;2023-08-07T07:10:19;20.40;78.30
24144;DHT22;12307;50.828;6.080;2023-08-07T07:12:45;20.40;78.30
24144;DHT22;12307;50.828;6.080;2023-08-07T07:15:11;20.40;78.30
24144;DHT22;12307;50.828;6.080;2023-08-07T07:17:37;20.40;78.30
24144;DHT22;12307;50.828;6.080;2023-08-07T07:20:05;20.50;78.30
24144;DHT22;12307;50.828;6.080;2023-08-07T07:22:31;20.40;78.10
24144;DHT22;12307;50.828;6.080;2023-08-07T07:24:56;20.40;78.10
24144;DHT22;12307;50.828;6.080;2023-08-07T07:27:22;20.50;78.10
24144;DHT22;12307;50.828;6.080;2023-08-07T07:29:50;20.50;78.00
24144;DHT22;12307;50.828;6.080;2023-08-07T07:32:16;20.50;78.00
24144;DHT22;12307;50.828;6.080;2023-08-07T07:34:42;20.50;77.90
24144;DHT22;12307;50.828;6.080;2023-08-07T07:37:09;20.50;77.80
24144;DHT22;12307;50.828;6.080;2023-08-07T07:39:35;20.50;77.70
24144;DHT22;12307;50.828;6.080;2023-08-07T07:42:01;20.50;77.70
24144;DHT22;12307;50.828;6.080;2023-08-07T07:44:26;20.50;77.70
24144;DHT22;12307;50.828;6.080;2023-08-07T07:46:52;20.50;77.60
24144;DHT22;12307;50.828;6.080;2023-08-07T07:49:18;20.50;77.60
24144;DHT22;12307;50.828;6.080;2023-08-07T07:51:44;20.50;77.40
24144;DHT22;12307;50.828;6.080;2023-08-07T07:54:11;20.60;77.50
24144;DHT22;12307;50.828;6.080;2023-08-07T07:56:37;20.60;77.40
24144;DHT22;12307;50.828;6.080;2023-08-07T07:59:02;20.60;77.30
24144;DHT22;12307;50.828;6.080;2023-08-07T08:01:28;20.60;77.30
24144;DHT22;12307;50.828;6.080;2023-08-07T08:03:54;20.60;77.20
24144;DHT22;12307;50.828;6.080;2023-08-07T08:06:19;20.60;77.10
24144;DHT22;12307;50.828;6.080;2023-08-07T08:08:45;20.70;77.90
24144;DHT22;12307;50.828;6.080;2023-08-07T08:11:13;20.70;76.90
24144;DHT22;12307;50.828;6.080;2023-08-07T08:13:39;20.80;76.90
24144;DHT22;12307;50.828;6.080;2023-08-07T08:16:06;20.80;76.80
24144;DHT22;12307;50.828;6.080;2023-08-07T08:18:32;20.80;76.60
24144;DHT22;12307;50.828;6.080;2023-08-07T08:20:58;20.90;76.60
24144;DHT22;12307;50.828;6.080;2023-08-07T08:23:24;20.90;76.50
24144;DHT22;12307;50.828;6.080;2023-08-07T08:25:49;20.90;76.50
24144;DHT22;12307;50.828;6.080;2023-08-07T08:28:17;20.90;76.30
24144;DHT22;12307;50.828;6.080;2023-08-07T08:30:44;20.90;76.30
24144;DHT22;12307;50.828;6.080;2023-08-07T08:33:09;20.90;76.20
24144;DHT22;12307;50.828;6.080;2023-08-07T08:35:38;20.90;76.20
24144;DHT22;12307;50.828;6.080;2023-08-07T08:38:03;20.90;76.10
24144;DHT22;12307;50.828;6.080;2023-08-07T08:40:30;20.90;76.00
24144;DHT22;12307;50.828;6.080;2023-08-07T08:42:56;21.00;76.00
24144;DHT22;12307;50.828;6.080;2023-08-07T08:45:27;21.00;75.90
24144;DHT22;12307;50.828;6.080;2023-08-07T08:47:55;21.00;75.80
24144;DHT22;12307;50.828;6.080;2023-08-07T08:50:24;21.00;75.70
24144;DHT22;12307;50.828;6.080;2023-08-07T08:52:53;21.00;75.60
24144;DHT22;12307;50.828;6.080;2023-08-07T08:55:21;21.00;75.60
24144;DHT22;12307;50.828;6.080;2023-08-07T08:57:48;21.00;75.50
24144;DHT22;12307;50.828;6.080;2023-08-07T09:00:16;21.00;75.50
24144;DHT22;12307;50.828;6.080;2023-08-07T09:02:48;21.00;75.50
24144;DHT22;12307;50.828;6.080;2023-08-07T09:05:15;21.00;75.30
24144;DHT22;12307;50.828;6.080;2023-08-07T09:07:43;21.10;75.30
24144;DHT22;12307;50.828;6.080;2023-08-07T09:10:10;21.10;75.20
24144;DHT22;12307;50.828;6.080;2023-08-07T09:12:40;21.20;75.10
24144;DHT22;12307;50.828;6.080;2023-08-07T09:15:07;21.20;74.90
24144;DHT22;12307;50.828;6.080;2023-08-07T09:17:39;21.20;74.80
24144;DHT22;12307;50.828;6.080;2023-08-07T09:20:07;21.20;74.60
24144;DHT22;12307;50.828;6.080;2023-08-07T09:22:37;21.20;74.50
24144;DHT22;12307;50.828;6.080;2023-08-07T09:25:03;21.20;74.40
24144;DHT22;12307;50.828;6.080;2023-08-07T09:27:31;21.20;74.40
24144;DHT22;12307;50.828;6.080;2023-08-07T09:29:57;21.20;74.30
24144;DHT22;12307;50.828;6.080;2023-08-07T09:32:23;21.10;74.20
24144;DHT22;12307;50.828;6.080;2023-08-07T09:34:50;21.20;74.30
24144;DHT22;12307;50.828;6.080;2023-08-07T09:37:18;21.30;74.20
24144;DHT22;12307;50.828;6.080;2023-08-07T09:39:44;21.50;74.00
24144;DHT22;12307;50.828;6.080;2023-08-07T09:42:13;21.60;73.70
24144;DHT22;12307;50.828;6.080;2023-08-07T09:44:39;21.70;73.40
24144;DHT22;12307;50.828;6.080;2023-08-07T09:47:12;21.70;73.40
24144;DHT22;12307;50.828;6.080;2023-08-07T09:49:38;21.70;73.20
24144;DHT22;12307;50.828;6.080;2023-08-07T09:52:06;21.70;73.10
24144;DHT22;12307;50.828;6.080;2023-08-07T09:54:34;21.80;72.90
24144;DHT22;12307;50.828;6.080;2023-08-07T09:57:01;21.80;72.80
24144;DHT22;12307;50.828;6.080;2023-08-07T09:59:27;21.80;72.70
24144;DHT22;12307;50.828;6.080;2023-08-07T10:01:53;21.90;72.50
24144;DHT22;12307;50.828;6.080;2023-08-07T10:04:20;22.00;72.30
24144;DHT22;12307;50.828;6.080;2023-08-07T10:06:46;22.10;72.10
24144;DHT22;12307;50.828;6.080;2023-08-07T10:09:12;22.10;71.90
24144;DHT22;12307;50.828;6.080;2023-08-07T10:11:41;22.10;71.70
24144;DHT22;12307;50.828;6.080;2023-08-07T10:14:08;22.10;71.60
24144;DHT22;12307;50.828;6.080;2023-08-07T10:16:34;22.10;71.40
24144;DHT22;12307;50.828;6.080;2023-08-07T10:19:05;22.10;71.30
24144;DHT22;12307;50.828;6.080;2023-08-07T10:21:31;22.00;71.10
24144;DHT22;12307;50.828;6.080;2023-08-07T10:23:57;22.00;71.00
24144;DHT22;12307;50.828;6.080;2023-08-07T10:26:25;22.00;70.80
24144;DHT22;12307;50.828;6.080;2023-08-07T10:28:52;21.90;70.70
24144;DHT22;12307;50.828;6.080;2023-08-07T10:31:20;21.90;70.60
24144;DHT22;12307;50.828;6.080;2023-08-07T10:33:47;21.90;70.50
24144;DHT22;12307;50.828;6.080;2023-08-07T10:36:16;21.80;70.30
24144;DHT22;12307;50.828;6.080;2023-08-07T10:38:42;21.80;70.30
24144;DHT22;12307;50.828;6.080;2023-08-07T10:41:09;21.80;70.20
24144;DHT22;12307;50.828;6.080;2023-08-07T10:43:39;21.80;70.20
24144;DHT22;12307;50.828;6.080;2023-08-07T10:46:08;21.80;70.00
24144;DHT22;12307;50.828;6.080;2023-08-07T10:48:41;22.00;70.00
24144;DHT22;12307;50.828;6.080;2023-08-07T10:51:08;22.20;69.70
24144;DHT22;12307;50.828;6.080;2023-08-07T10:53:35;22.40;69.40
24144;DHT22;12307;50.828;6.080;2023-08-07T10:56:02;22.60;69.20
24144;DHT22;12307;50.828;6.080;2023-08-07T10:58:30;22.70;69.00
24144;DHT22;12307;50.828;6.080;2023-08-07T11:01:20;22.80;68.90
24144;DHT22;12307;50.828;6.080;2023-08-07T11:03:49;22.80;68.70
24144;DHT22;12307;50.828;6.080;2023-08-07T11:06:16;22.70;68.80
24144;DHT22;12307;50.828;6.080;2023-08-07T11:08:42;22.70;69.00
24144;DHT22;12307;50.828;6.080;2023-08-07T11:11:08;22.70;69.00
24144;DHT22;12307;50.828;6.080;2023-08-07T11:13:34;22.80;68.90
24144;DHT22;12307;50.828;6.080;2023-08-07T11:16:00;23.00;68.80
24144;DHT22;12307;50.828;6.080;2023-08-07T11:18:29;23.20;68.80
24144;DHT22;12307;50.828;6.080;2023-08-07T11:20:55;23.30;68.80
24144;DHT22;12307;50.828;6.080;2023-08-07T11:23:24;23.30;68.80
24144;DHT22;12307;50.828;6.080;2023-08-07T11:25:51;23.30;68.90
24144;DHT22;12307;50.828;6.080;2023-08-07T11:28:18;23.20;68.90
24144;DHT22;12307;50.828;6.080;2023-08-07T11:30:44;23.20;68.70
24144;DHT22;12307;50.828;6.080;2023-08-07T11:33:10;23.20;68.50
24144;DHT22;12307;50.828;6.080;2023-08-07T11:35:42;23.20;68.30
24144;DHT22;12307;50.828;6.080;2023-08-07T11:38:07;23.40;68.10
24144;DHT22;12307;50.828;6.080;2023-08-07T11:40:34;23.50;67.80
24144;DHT22;12307;50.828;6.080;2023-08-07T11:42:59;23.60;67.50
24144;DHT22;12307;50.828;6.080;2023-08-07T11:45:25;23.70;67.20
24144;DHT22;12307;50.828;6.080;2023-08-07T11:47:52;23.80;67.00
24144;DHT22;12307;50.828;6.080;2023-08-07T11:50:17;23.80;66.70
24144;DHT22;12307;50.828;6.080;2023-08-07T11:52:44;23.80;66.50
24144;DHT22;12307;50.828;6.080;2023-08-07T11:55:10;23.70;66.50
24144;DHT22;12307;50.828;6.080;2023-08-07T11:57:38;23.60;66.40
24144;DHT22;12307;50.828;6.080;2023-08-07T12:00:06;23.50;66.20
24144;DHT22;12307;50.828;6.080;2023-08-07T12:02:35;23.40;66.10
24144;DHT22;12307;50.828;6.080;2023-08-07T12:05:01;23.30;66.00
24144;DHT22;12307;50.828;6.080;2023-08-07T12:07:27;23.30;65.90
24144;DHT22;12307;50.828;6.080;2023-08-07T12:09:54;23.40;65.70
24144;DHT22;12307;50.828;6.080;2023-08-07T12:12:20;23.50;65.50
24144;DHT22;12307;50.828;6.080;2023-08-07T12:14:46;23.60;65.30
24144;DHT22;12307;50.828;6.080;2023-08-07T12:17:12;23.60;65.20
24144;DHT22;12307;50.828;6.080;2023-08-07T12:19:38;23.60;65.20
24144;DHT22;12307;50.828;6.080;2023-08-07T12:22:06;23.60;66.10
24144;DHT22;12307;50.828;6.080;2023-08-07T12:24:33;23.60;65.20
24144;DHT22;12307;50.828;6.080;2023-08-07T12:27:01;23.60;65.00
24144;DHT22;12307;50.828;6.080;2023-08-07T12:29:27;23.70;64.90
24144;DHT22;12307;50.828;6.080;2023-08-07T12:31:54;23.70;64.90
24144;DHT22;12307;50.828;6.080;2023-08-07T12:34:20;23.70;64.80
24144;DHT22;12307;50.828;6.080;2023-08-07T12:36:46;23.70;64.70
24144;DHT22;12307;50.828;6.080;2023-08-07T12:39:12;23.70;64.70
24144;DHT22;12307;50.828;6.080;2023-08-07T12:41:38;23.60;64.60
24144;DHT22;12307;50.828;6.080;2023-08-07T12:44:05;23.60;64.60
24144;DHT22;12307;50.828;6.080;2023-08-07T12:46:31;23.60;64.60
24144;DHT22;12307;50.828;6.080;2023-08-07T12:48:56;23.60;64.50
24144;DHT22;12307;50.828;6.080;2023-08-07T12:51:22;23.60;64.40
24144;DHT22;12307;50.828;6.080;2023-08-07T12:53:48;23.70;64.40
24144;DHT22;12307;50.828;6.080;2023-08-07T12:56:13;23.70;64.30
24144;DHT22;12307;50.828;6.080;2023-08-07T12:58:39;23.70;64.20
24144;DHT22;12307;50.828;6.080;2023-08-07T13:01:06;23.70;64.10
24144;DHT22;12307;50.828;6.080;2023-08-07T13:03:32;23.70;64.10
24144;DHT22;12307;50.828;6.080;2023-08-07T13:05:58;23.70;64.10
24144;DHT22;12307;50.828;6.080;2023-08-07T13:08:23;23.60;64.00
24144;DHT22;12307;50.828;6.080;2023-08-07T13:10:49;23.60;64.00
24144;DHT22;12307;50.828;6.080;2023-08-07T13:13:15;23.60;63.90
24144;DHT22;12307;50.828;6.080;2023-08-07T13:15:40;23.60;63.90
24144;DHT22;12307;50.828;6.080;2023-08-07T13:18:07;23.60;63.90
24144;DHT22;12307;50.828;6.080;2023-08-07T13:20:33;23.60;64.70
24144;DHT22;12307;50.828;6.080;2023-08-07T13:23:00;23.60;63.90
24144;DHT22;12307;50.828;6.080;2023-08-07T13:25:26;23.50;63.70
24144;DHT22;12307;50.828;6.080;2023-08-07T13:27:51;23.50;63.80
24144;DHT22;12307;50.828;6.080;2023-08-07T13:30:17;23.50;63.70
24144;DHT22;12307;50.828;6.080;2023-08-07T13:32:43;23.50;63.70
24144;DHT22;12307;50.828;6.080;2023-08-07T13:35:10;23.50;63.60
24144;DHT22;12307;50.828;6.080;2023-08-07T13:37:35;23.50;63.50
24144;DHT22;12307;50.828;6.080;2023-08-07T13:40:04;23.50;63.40
24144;DHT22;12307;50.828;6.080;2023-08-07T13:42:30;23.50;63.30
24144;DHT22;12307;50.828;6.080;2023-08-07T13:44:57;23.40;63.10
24144;DHT22;12307;50.828;6.080;2023-08-07T13:47:23;23.40;63.10
24144;DHT22;12307;50.828;6.080;2023-08-07T13:49:51;23.40;63.00
24144;DHT22;12307;50.828;6.080;2023-08-07T13:52:19;23.40;62.90
24144;DHT22;12307;50.828;6.080;2023-08-07T13:54:45;23.40;62.80
24144;DHT22;12307;50.828;6.080;2023-08-07T13:57:11;23.30;62.70
24144;DHT22;12307;50.828;6.080;2023-08-07T13:59:36;23.30;62.70
24144;DHT22;12307;50.828;6.080;2023-08-07T14:02:02;23.30;62.60
24144;DHT22;12307;50.828;6.080;2023-08-07T14:04:28;23.30;62.50
24144;DHT22;12307;50.828;6.080;2023-08-07T14:06:53;23.30;62.50
24144;DHT22;12307;50.828;6.080;2023-08-07T14:09:20;23.30;62.40
24144;DHT22;12307;50.828;6.080;2023-08-07T14:11:47;23.30;62.40
24144;DHT22;12307;50.828;6.080;2023-08-07T14:14:13;23.30;62.40
24144;DHT22;12307;50.828;6.080;2023-08-07T14:16:39;23.30;62.30
24144;DHT22;12307;50.828;6.080;2023-08-07T14:19:04;23.20;62.20
24144;DHT22;12307;50.828;6.080;2023-08-07T14:21:30;23.20;62.20
24144;DHT22;12307;50.828;6.080;2023-08-07T14:23:56;23.20;62.10
24144;DHT22;12307;50.828;6.080;2023-08-07T14:26:23;23.20;62.10
24144;DHT22;12307;50.828;6.080;2023-08-07T14:28:48;23.20;62.10
24144;DHT22;12307;50.828;6.080;2023-08-07T14:31:14;23.20;62.10
24144;DHT22;12307;50.828;6.080;2023-08-07T14:33:40;23.20;62.00
24144;DHT22;12307;50.828;6.080;2023-08-07T14:36:06;23.20;62.00
24144;DHT22;12307;50.828;6.080;2023-08-07T14:38:32;23.10;61.80
24144;DHT22;12307;50.828;6.080;2023-08-07T14:40:57;23.10;61.80
24144;DHT22;12307;50.828;6.080;2023-08-07T14:43:29;23.10;61.80
24144;DHT22;12307;50.828;6.080;2023-08-07T14:45:55;23.10;61.80
24144;DHT22;12307;50.828;6.080;2023-08-07T14:48:20;23.10;61.80
24144;DHT22;12307;50.828;6.080;2023-08-07T14:50:46;23.10;61.70
24144;DHT22;12307;50.828;6.080;2023-08-07T14:53:12;23.10;61.70
24144;DHT22;12307;50.828;6.080;2023-08-07T14:55:38;23.10;61.60
24144;DHT22;12307;50.828;6.080;2023-08-07T14:58:03;23.10;61.60
24144;DHT22;12307;50.828;6.080;2023-08-07T15:00:31;23.10;61.60
24144;DHT22;12307;50.828;6.080;2023-08-07T15:02:56;23.10;61.50
24144;DHT22;12307;50.828;6.080;2023-08-07T15:05:23;23.10;61.50
24144;DHT22;12307;50.828;6.080;2023-08-07T15:07:49;23.10;61.40
24144;DHT22;12307;50.828;6.080;2023-08-07T15:10:14;23.10;62.30
24144;DHT22;12307;50.828;6.080;2023-08-07T15:12:40;23.10;61.40
24144;DHT22;12307;50.828;6.080;2023-08-07T15:15:07;23.10;61.40
24144;DHT22;12307;50.828;6.080;2023-08-07T15:17:34;23.10;61.30
24144;DHT22;12307;50.828;6.080;2023-08-07T15:19:59;23.10;61.20
24144;DHT22;12307;50.828;6.080;2023-08-07T15:22:25;23.10;61.20
24144;DHT22;12307;50.828;6.080;2023-08-07T15:24:51;23.00;61.10